createdAt,value
2022-08-26T00:01:42.275Z,13.02
2022-08-26T00:04:12.020Z,15.70
2022-08-26T00:06:39.145Z,15.40
2022-08-26T00:09:09.881Z,15.85
2022-08-26T00:11:36.791Z,20.00
2022-08-26T00:14:05.162Z,18.90
2022-08-26T00:16:32.049Z,18.90
2022-08-26T00:18:59.294Z,21.38
2022-08-26T00:21:25.911Z,25.27
2022-08-26T00:23:52.575Z,27.20
2022-08-26T00:26:19.296Z,22.00
2022-08-26T00:28:47.459Z,24.95
2022-08-26T00:31:14.755Z,22.48
2022-08-26T00:33:41.829Z,21.73
2022-08-26T00:36:09.461Z,23.25
2022-08-26T00:38:46.734Z,24.00
2022-08-26T00:41:13.793Z,30.05
2022-08-26T00:43:47.629Z,26.38
2022-08-26T00:46:19.800Z,27.63
2022-08-26T00:48:50.177Z,30.48
2022-08-26T00:51:29.766Z,27.52
2022-08-26T00:54:07.601Z,26.88
2022-08-26T00:56:46.965Z,25.80
2022-08-26T00:59:17.235Z,26.73
2022-08-26T01:01:45.961Z,29.98
2022-08-26T01:04:17.731Z,28.55
2022-08-26T01:06:45.413Z,28.83
2022-08-26T01:09:12.586Z,29.98
2022-08-26T01:11:41.043Z,30.83
2022-08-26T01:14:08.413Z,32.60
2022-08-26T01:16:36.298Z,33.80
2022-08-26T01:19:14.435Z,36.55
2022-08-26T01:21:50.038Z,27.48
2022-08-26T01:24:17.239Z,36.08
2022-08-26T01:26:45.411Z,28.92
2022-08-26T01:29:15.991Z,30.35
2022-08-26T01:31:46.837Z,31.45
2022-08-26T01:34:19.671Z,33.08
2022-08-26T01:36:51.665Z,30.08
2022-08-26T01:39:19.261Z,31.08
2022-08-26T01:41:47.542Z,29.30
2022-08-26T01:44:23.819Z,31.70
2022-08-26T01:46:52.864Z,33.53
2022-08-26T01:49:22.531Z,30.92
2022-08-26T01:51:53.709Z,29.05
2022-08-26T01:54:23.021Z,32.63
2022-08-26T01:56:51.705Z,33.10
2022-08-26T01:59:20.515Z,33.72
2022-08-26T02:01:48.699Z,31.70
2022-08-26T02:04:23.433Z,35.83
2022-08-26T02:06:51.706Z,32.92
2022-08-26T02:09:20.735Z,31.98
2022-08-26T02:11:47.777Z,38.67
2022-08-26T02:14:22.929Z,36.38
2022-08-26T02:16:55.954Z,35.17
2022-08-26T02:19:27.751Z,34.60
2022-08-26T02:21:54.492Z,36.60
2022-08-26T02:24:27.852Z,35.30
2022-08-26T02:26:57.603Z,33.38
2022-08-26T02:29:31.625Z,35.35
2022-08-26T02:31:58.762Z,33.13
2022-08-26T02:34:31.995Z,29.50
2022-08-26T02:37:05.285Z,34.17
2022-08-26T02:39:33.862Z,38.95
2022-08-26T02:42:01.646Z,36.20
2022-08-26T02:44:29.117Z,33.03
2022-08-26T02:46:56.166Z,33.30
2022-08-26T02:49:24.282Z,30.90
2022-08-26T02:51:51.711Z,34.20
2022-08-26T02:54:21.319Z,36.13
2022-08-26T02:56:49.316Z,29.20
2022-08-26T02:59:15.866Z,29.95
2022-08-26T03:01:44.353Z,34.13
2022-08-26T03:04:12.568Z,30.05
2022-08-26T03:06:41.638Z,24.17
2022-08-26T03:09:08.425Z,31.70
2022-08-26T03:11:36.557Z,30.10
2022-08-26T03:14:04.388Z,26.27
2022-08-26T03:16:33.426Z,28.13
2022-08-26T03:19:00.974Z,31.83
2022-08-26T03:21:27.592Z,26.10
2022-08-26T03:23:54.229Z,23.85
2022-08-26T03:26:28.290Z,26.48
2022-08-26T03:29:13.908Z,27.63
2022-08-26T03:31:41.057Z,27.65
2022-08-26T03:34:09.678Z,21.98
2022-08-26T03:36:38.815Z,28.33
2022-08-26T03:39:07.975Z,25.63
2022-08-26T03:41:35.924Z,29.02
2022-08-26T03:44:04.185Z,25.48
2022-08-26T03:46:33.181Z,19.52
2022-08-26T03:49:01.924Z,21.00
2022-08-26T03:51:28.961Z,24.23
2022-08-26T03:53:55.972Z,21.15
2022-08-26T03:56:23.858Z,24.75
2022-08-26T03:58:50.920Z,21.33
2022-08-26T04:01:17.865Z,22.45
2022-08-26T04:04:00.149Z,21.55
2022-08-26T04:06:32.992Z,19.25
2022-08-26T04:09:02.319Z,22.48
2022-08-26T04:11:34.309Z,16.05
2022-08-26T04:14:05.333Z,26.38
2022-08-26T04:16:32.467Z,15.95
2022-08-26T04:18:59.531Z,15.85
2022-08-26T04:21:27.281Z,19.17
2022-08-26T04:23:54.563Z,18.35
2022-08-26T04:26:24.325Z,20.20
2022-08-26T04:28:52.662Z,16.50
2022-08-26T04:31:20.307Z,18.38
2022-08-26T04:33:49.734Z,20.08
2022-08-26T04:36:16.467Z,19.00
2022-08-26T04:38:43.431Z,19.27
2022-08-26T04:41:15.614Z,17.15
2022-08-26T04:43:44.607Z,15.82
2022-08-26T04:46:13.039Z,19.15
2022-08-26T04:48:42.087Z,17.77
2022-08-26T04:51:09.935Z,22.17
2022-08-26T04:53:37.260Z,17.85
2022-08-26T04:56:04.425Z,19.05
2022-08-26T04:58:32.573Z,18.23
2022-08-26T05:00:59.523Z,14.68
2022-08-26T05:03:30.205Z,19.42
2022-08-26T05:05:58.246Z,16.38
2022-08-26T05:08:25.158Z,14.20
2022-08-26T05:10:56.175Z,17.33
2022-08-26T05:13:26.564Z,13.45
2022-08-26T05:15:54.398Z,16.92
2022-08-26T05:18:23.184Z,16.58
2022-08-26T05:20:54.529Z,13.35
2022-08-26T05:23:23.053Z,12.30
2022-08-26T05:25:55.799Z,15.13
2022-08-26T05:28:25.647Z,14.95
2022-08-26T05:30:52.432Z,14.05
2022-08-26T05:33:19.592Z,15.20
2022-08-26T05:35:47.116Z,14.18
2022-08-26T05:38:21.492Z,14.75
2022-08-26T05:40:52.774Z,18.90
2022-08-26T05:43:20.940Z,16.38
2022-08-26T05:45:49.942Z,16.00
2022-08-26T05:48:22.831Z,18.95
2022-08-26T05:50:53.280Z,22.60
2022-08-26T05:53:21.858Z,14.82
2022-08-26T05:55:51.691Z,17.35
2022-08-26T05:58:20.880Z,17.05
2022-08-26T06:01:00.982Z,23.38
2022-08-26T06:03:29.013Z,18.70
2022-08-26T06:05:56.784Z,15.45
2022-08-26T06:08:24.095Z,14.57
2022-08-26T06:10:53.625Z,14.02
2022-08-26T06:13:23.825Z,19.15
2022-08-26T06:15:51.621Z,13.88
2022-08-26T06:18:21.818Z,21.35
2022-08-26T06:20:57.959Z,18.90
2022-08-26T06:23:45.685Z,19.25
2022-08-26T06:26:13.750Z,17.17
2022-08-26T06:28:40.397Z,14.80
2022-08-26T06:31:10.432Z,14.50
2022-08-26T06:33:37.691Z,13.63
2022-08-26T06:36:06.865Z,15.13
2022-08-26T06:38:33.541Z,12.13
2022-08-26T06:41:00.963Z,18.00
2022-08-26T06:43:29.635Z,14.10
2022-08-26T06:46:09.080Z,14.60
2022-08-26T06:48:36.028Z,18.20
2022-08-26T06:51:09.237Z,14.13
2022-08-26T06:53:37.287Z,13.23
2022-08-26T06:56:06.776Z,14.65
2022-08-26T06:58:34.868Z,15.48
2022-08-26T07:01:11.641Z,12.25
2022-08-26T07:03:39.810Z,17.20
2022-08-26T07:06:06.978Z,14.68
2022-08-26T07:08:33.894Z,13.65
2022-08-26T07:11:05.488Z,12.20
2022-08-26T07:13:33.210Z,13.70
2022-08-26T07:16:02.872Z,12.93
2022-08-26T07:18:29.856Z,12.13
2022-08-26T07:20:56.414Z,10.20
2022-08-26T07:23:23.364Z,10.77
2022-08-26T07:25:49.989Z,11.45
2022-08-26T07:28:16.633Z,12.05
2022-08-26T07:30:43.524Z,12.40
2022-08-26T07:33:10.148Z,12.68
2022-08-26T07:35:38.033Z,11.82
2022-08-26T07:38:04.656Z,18.20
2022-08-26T07:40:32.137Z,9.68
2022-08-26T07:43:00.928Z,8.55
2022-08-26T07:45:27.633Z,6.85
2022-08-26T07:47:54.589Z,8.07
2022-08-26T07:50:22.383Z,13.65
2022-08-26T07:53:10.595Z,10.63
2022-08-26T07:55:37.535Z,7.82
2022-08-26T07:58:05.672Z,8.57
2022-08-26T08:00:33.537Z,13.90
2022-08-26T08:03:04.105Z,7.50
2022-08-26T08:05:33.490Z,6.03
2022-08-26T08:08:27.135Z,6.07
2022-08-26T08:10:52.240Z,6.53
2022-08-26T08:13:19.031Z,5.93
2022-08-26T08:15:46.953Z,6.70
2022-08-26T08:18:17.055Z,7.50
2022-08-26T08:20:47.650Z,10.18
2022-08-26T08:23:31.605Z,6.38
2022-08-26T08:26:09.206Z,8.93
2022-08-26T08:28:38.992Z,4.65
2022-08-26T08:31:06.314Z,10.85
2022-08-26T08:33:35.029Z,6.05
2022-08-26T08:36:01.836Z,6.03
2022-08-26T08:38:28.626Z,7.57
2022-08-26T08:40:55.657Z,6.53
2022-08-26T08:43:32.124Z,5.20
2022-08-26T08:46:10.290Z,8.35
2022-08-26T08:48:43.028Z,6.88
2022-08-26T08:51:22.219Z,7.85
2022-08-26T08:53:51.349Z,6.32
2022-08-26T08:56:32.414Z,7.63
2022-08-26T08:58:59.228Z,8.27
2022-08-26T09:01:47.542Z,5.55
2022-08-26T09:04:40.393Z,5.82
2022-08-26T09:07:13.350Z,5.10
2022-08-26T09:09:46.020Z,7.15
2022-08-26T09:12:20.655Z,4.88
2022-08-26T09:15:07.658Z,5.95
2022-08-26T09:18:10.806Z,5.10
2022-08-26T09:20:48.796Z,9.75
2022-08-26T09:23:15.545Z,8.68
2022-08-26T09:25:56.446Z,7.97
2022-08-26T09:28:25.532Z,5.10
2022-08-26T09:31:27.726Z,5.50
2022-08-26T09:34:17.783Z,5.43
2022-08-26T09:36:49.105Z,7.50
2022-08-26T09:39:25.861Z,4.32
2022-08-26T09:42:11.940Z,3.67
2022-08-26T09:44:55.883Z,5.75
2022-08-26T09:47:30.260Z,9.25
2022-08-26T09:50:38.666Z,14.90
2022-08-26T09:53:14.524Z,5.72
2022-08-26T09:55:44.095Z,7.85
2022-08-26T09:58:34.976Z,6.30
2022-08-26T10:01:07.643Z,6.18
2022-08-26T10:03:38.043Z,6.15
2022-08-26T10:06:20.980Z,5.00
2022-08-26T10:08:54.937Z,8.45
2022-08-26T10:11:59.197Z,6.80
2022-08-26T10:14:39.853Z,6.13
2022-08-26T10:17:10.006Z,8.65
2022-08-26T10:19:55.957Z,10.60
2022-08-26T10:22:51.261Z,8.93
2022-08-26T10:25:26.191Z,4.60
2022-08-26T10:28:09.501Z,5.60
2022-08-26T10:30:50.910Z,7.60
2022-08-26T10:33:18.479Z,6.32
2022-08-26T10:35:52.297Z,9.57
2022-08-26T10:38:27.492Z,7.68
2022-08-26T10:41:10.364Z,4.82
2022-08-26T10:43:42.732Z,6.80
2022-08-26T10:46:15.412Z,4.03
2022-08-26T10:48:55.834Z,8.45
2022-08-26T10:51:27.505Z,6.18
2022-08-26T10:54:23.788Z,4.82
2022-08-26T10:57:15.274Z,4.20
2022-08-26T10:59:50.876Z,5.32
2022-08-26T11:02:37.393Z,4.60
2022-08-26T11:05:15.216Z,6.87
2022-08-26T11:07:52.688Z,5.32
2022-08-26T11:10:21.551Z,5.00
2022-08-26T11:13:09.129Z,6.15
2022-08-26T11:15:38.699Z,5.88
2022-08-26T11:18:10.990Z,4.35
2022-08-26T11:20:42.124Z,3.95
2022-08-26T11:23:21.216Z,6.43
2022-08-26T11:25:57.432Z,5.68
2022-08-26T11:28:39.731Z,3.30
2022-08-26T11:31:20.244Z,5.30
2022-08-26T11:33:52.268Z,3.10
2022-08-26T11:36:36.291Z,3.97
2022-08-26T11:39:20.885Z,4.45
2022-08-26T11:41:52.861Z,3.97
2022-08-26T11:44:23.659Z,3.08
2022-08-26T11:47:00.892Z,2.42
2022-08-26T11:49:28.860Z,2.85
2022-08-26T11:52:21.087Z,1.80
2022-08-26T11:55:11.090Z,6.15
2022-08-26T11:57:45.481Z,4.35
2022-08-26T12:00:22.232Z,4.38
2022-08-26T12:02:50.241Z,4.22
2022-08-26T12:05:25.739Z,3.25
2022-08-26T12:07:57.049Z,3.28
2022-08-26T12:10:32.754Z,4.22
2022-08-26T12:13:02.455Z,3.28
2022-08-26T12:15:31.330Z,4.00
2022-08-26T12:18:00.328Z,2.80
2022-08-26T12:20:48.298Z,3.72
2022-08-26T12:23:26.961Z,4.75
2022-08-26T12:26:05.537Z,5.07
2022-08-26T12:28:33.123Z,7.90
2022-08-26T12:31:06.039Z,5.05
2022-08-26T12:33:36.346Z,6.35
2022-08-26T12:36:05.164Z,2.28
2022-08-26T12:38:33.995Z,5.32
2022-08-26T12:41:00.711Z,3.15
2022-08-26T12:43:43.297Z,5.28
2022-08-26T12:46:17.673Z,4.43
2022-08-26T12:48:48.456Z,3.45
2022-08-26T12:51:23.908Z,5.00
2022-08-26T12:53:50.599Z,2.10
2022-08-26T12:56:33.966Z,4.82
2022-08-26T12:59:25.120Z,3.88
2022-08-26T13:01:53.584Z,7.60
2022-08-26T13:04:36.857Z,3.85
2022-08-26T13:07:18.771Z,4.68
2022-08-26T13:09:45.273Z,5.38
2022-08-26T13:12:12.184Z,4.80
2022-08-26T13:14:40.478Z,6.22
2022-08-26T13:17:07.049Z,6.68
2022-08-26T13:19:33.715Z,4.85
2022-08-26T13:22:00.766Z,3.42
2022-08-26T13:24:41.863Z,2.88
2022-08-26T13:27:11.434Z,5.20
2022-08-26T13:29:38.236Z,5.22
2022-08-26T13:32:06.713Z,7.00
2022-08-26T13:34:36.761Z,6.82
2022-08-26T13:37:03.425Z,3.08
2022-08-26T13:39:30.407Z,2.05
2022-08-26T13:41:57.090Z,5.43
2022-08-26T13:44:23.933Z,2.95
2022-08-26T13:46:50.493Z,4.20
2022-08-26T13:49:17.331Z,2.80
2022-08-26T13:51:43.865Z,3.08
2022-08-26T13:54:10.503Z,3.00
2022-08-26T13:56:37.517Z,6.13
2022-08-26T13:59:05.774Z,4.93
2022-08-26T14:01:34.078Z,2.05
2022-08-26T14:04:00.785Z,4.55
2022-08-26T14:06:27.397Z,6.70
2022-08-26T14:08:53.931Z,3.80
2022-08-26T14:11:21.524Z,4.00
2022-08-26T14:13:48.237Z,4.00
2022-08-26T14:16:25.769Z,3.30
2022-08-26T14:18:53.498Z,4.35
2022-08-26T14:21:20.668Z,5.88
2022-08-26T14:23:47.616Z,3.10
2022-08-26T14:26:28.526Z,3.35
2022-08-26T14:28:57.873Z,5.40
2022-08-26T14:31:29.078Z,4.00
2022-08-26T14:33:59.397Z,5.38
2022-08-26T14:36:32.212Z,2.78
2022-08-26T14:39:11.602Z,3.72
2022-08-26T14:41:46.032Z,4.90
2022-08-26T14:44:21.924Z,2.22
2022-08-26T14:46:50.816Z,3.28
2022-08-26T14:49:19.078Z,6.40
2022-08-26T14:51:46.119Z,1.42
2022-08-26T14:54:16.726Z,1.95
2022-08-26T14:56:59.112Z,2.13
2022-08-26T14:59:27.758Z,4.57
2022-08-26T15:01:55.267Z,2.25
2022-08-26T15:04:23.225Z,2.38
2022-08-26T15:06:50.643Z,8.75
2022-08-26T15:09:17.409Z,5.55
2022-08-26T15:11:44.605Z,3.75
2022-08-26T15:14:19.604Z,3.72
2022-08-26T15:16:48.476Z,2.22
2022-08-26T15:19:15.759Z,2.38
2022-08-26T15:21:43.429Z,4.80
2022-08-26T15:24:10.171Z,1.73
2022-08-26T15:26:39.377Z,5.40
2022-08-26T15:29:06.215Z,6.50
2022-08-26T15:31:33.893Z,3.95
2022-08-26T15:34:04.531Z,4.13
2022-08-26T15:36:33.108Z,2.33
2022-08-26T15:39:00.653Z,2.90
2022-08-26T15:41:28.355Z,25.20
2022-08-26T15:43:54.928Z,3.95
2022-08-26T15:46:21.703Z,2.80
2022-08-26T15:48:48.556Z,5.90
2022-08-26T15:51:27.950Z,2.78
2022-08-26T15:53:56.377Z,5.90
2022-08-26T15:56:27.395Z,6.10
2022-08-26T15:58:56.302Z,2.65
2022-08-26T16:01:27.169Z,3.20
2022-08-26T16:03:55.672Z,2.85
2022-08-26T16:06:25.719Z,3.08
2022-08-26T16:08:52.335Z,3.28
2022-08-26T16:11:19.841Z,7.55
2022-08-26T16:13:47.246Z,1.55
2022-08-26T16:16:14.707Z,2.85
2022-08-26T16:18:42.369Z,2.55
2022-08-26T16:21:13.562Z,2.45
2022-08-26T16:23:40.943Z,4.68
2022-08-26T16:26:15.582Z,1.65
2022-08-26T16:28:43.550Z,2.65
2022-08-26T16:31:11.131Z,5.25
2022-08-26T16:33:37.952Z,4.40
2022-08-26T16:36:06.474Z,6.28
2022-08-26T16:38:33.765Z,3.08
2022-08-26T16:41:01.258Z,4.40
2022-08-26T16:43:28.612Z,6.00
2022-08-26T16:45:56.111Z,1.58
2022-08-26T16:48:23.597Z,3.17
2022-08-26T16:50:51.173Z,2.85
2022-08-26T16:53:18.893Z,2.58
2022-08-26T16:55:47.727Z,3.10
2022-08-26T16:58:15.160Z,2.78
2022-08-26T17:00:41.886Z,2.88
2022-08-26T17:03:10.038Z,8.15
2022-08-26T17:05:37.107Z,4.00
2022-08-26T17:08:04.940Z,5.53
2022-08-26T17:10:32.818Z,1.88
2022-08-26T17:13:00.312Z,2.92
2022-08-26T17:15:27.202Z,4.15
2022-08-26T17:17:54.814Z,5.45
2022-08-26T17:20:23.180Z,5.65
2022-08-26T17:22:51.700Z,3.35
2022-08-26T17:25:24.837Z,3.03
2022-08-26T17:27:51.993Z,4.90
2022-08-26T17:30:19.675Z,2.95
2022-08-26T17:32:46.335Z,4.40
2022-08-26T17:35:14.199Z,8.18
2022-08-26T17:37:41.343Z,11.15
2022-08-26T17:40:11.624Z,3.13
2022-08-26T17:42:40.189Z,4.72
2022-08-26T17:45:08.435Z,3.75
2022-08-26T17:47:35.780Z,4.68
2022-08-26T17:50:03.854Z,3.03
2022-08-26T17:52:30.719Z,3.40
2022-08-26T17:54:57.911Z,4.07
2022-08-26T17:57:25.892Z,4.95
2022-08-26T17:59:53.687Z,2.50
2022-08-26T18:02:21.147Z,4.18
2022-08-26T18:04:48.145Z,7.60
2022-08-26T18:07:15.208Z,3.80
2022-08-26T18:09:42.020Z,3.60
2022-08-26T18:12:09.418Z,6.80
2022-08-26T18:14:36.421Z,2.85
2022-08-26T18:17:03.673Z,3.53
2022-08-26T18:19:31.393Z,4.50
2022-08-26T18:21:58.473Z,4.93
2022-08-26T18:24:25.388Z,2.85
2022-08-26T18:26:52.015Z,5.97
2022-08-26T18:29:19.927Z,4.03
2022-08-26T18:31:48.468Z,3.55
2022-08-26T18:34:16.591Z,5.88
2022-08-26T18:36:43.906Z,3.65
2022-08-26T18:39:11.848Z,2.67
2022-08-26T18:41:44.112Z,2.45
2022-08-26T18:44:13.675Z,3.60
2022-08-26T18:46:41.400Z,3.75
2022-08-26T18:49:08.464Z,3.47
2022-08-26T18:51:35.584Z,3.08
2022-08-26T18:54:05.493Z,4.45
2022-08-26T18:56:33.780Z,3.33
2022-08-26T18:59:00.635Z,3.42
2022-08-26T19:01:28.529Z,6.32
2022-08-26T19:03:57.934Z,5.05
2022-08-26T19:06:25.696Z,2.67
2022-08-26T19:08:53.801Z,2.95
2022-08-26T19:11:31.333Z,1.40
2022-08-26T19:14:01.608Z,4.05
2022-08-26T19:16:29.608Z,4.60
2022-08-26T19:18:58.876Z,3.40
2022-08-26T19:21:25.908Z,2.72
2022-08-26T19:23:56.886Z,8.88
2022-08-26T19:26:24.332Z,2.78
2022-08-26T19:28:51.350Z,4.22
2022-08-26T19:31:17.952Z,3.28
2022-08-26T19:33:45.531Z,6.80
2022-08-26T19:36:19.098Z,3.13
2022-08-26T19:38:47.594Z,2.20
2022-08-26T19:41:18.292Z,2.20
2022-08-26T19:43:46.269Z,1.80
2022-08-26T19:46:23.119Z,1.70
2022-08-26T19:48:54.049Z,2.85
2022-08-26T19:51:30.705Z,4.32
2022-08-26T19:53:59.128Z,2.30
2022-08-26T19:56:28.009Z,4.97
2022-08-26T19:58:55.600Z,4.03
2022-08-26T20:01:22.680Z,3.80
2022-08-26T20:03:49.444Z,3.38
2022-08-26T20:06:20.257Z,3.50
2022-08-26T20:08:47.189Z,2.17
2022-08-26T20:11:16.735Z,3.42
2022-08-26T20:13:45.595Z,4.47
2022-08-26T20:16:12.633Z,4.32
2022-08-26T20:18:59.879Z,6.25
2022-08-26T20:21:29.440Z,7.38
2022-08-26T20:24:04.594Z,2.83
2022-08-26T20:26:33.338Z,3.20
2022-08-26T20:29:00.358Z,6.57
2022-08-26T20:31:28.076Z,4.85
2022-08-26T20:33:54.873Z,2.70
2022-08-26T20:36:24.283Z,2.13
2022-08-26T20:38:50.991Z,3.85
2022-08-26T20:41:18.270Z,2.00
2022-08-26T20:43:46.189Z,5.55
2022-08-26T20:46:17.233Z,2.35
2022-08-26T20:48:45.878Z,1.80
2022-08-26T20:51:12.531Z,4.15
2022-08-26T20:53:39.334Z,6.25
2022-08-26T20:56:08.816Z,2.60
2022-08-26T20:58:35.936Z,6.28
2022-08-26T21:01:07.334Z,6.22
2022-08-26T21:03:35.792Z,3.38
2022-08-26T21:06:03.728Z,4.65
2022-08-26T21:08:30.661Z,4.88
2022-08-26T21:10:59.960Z,5.97
2022-08-26T21:13:26.720Z,3.38
2022-08-26T21:15:57.943Z,2.70
2022-08-26T21:18:24.951Z,5.18
2022-08-26T21:20:51.739Z,3.05
2022-08-26T21:23:19.238Z,2.92
2022-08-26T21:25:46.576Z,4.63
2022-08-26T21:28:13.253Z,1.88
2022-08-26T21:30:41.103Z,3.83
2022-08-26T21:33:08.305Z,3.70
2022-08-26T21:35:34.921Z,1.25
2022-08-26T21:38:01.834Z,2.75
2022-08-26T21:40:28.635Z,3.60
2022-08-26T21:42:55.277Z,2.60
2022-08-26T21:45:22.128Z,6.38
2022-08-26T21:47:48.825Z,3.40
2022-08-26T21:50:15.348Z,4.20
2022-08-26T21:52:41.867Z,3.08
2022-08-26T21:55:09.506Z,7.40
2022-08-26T21:57:38.797Z,3.17
2022-08-26T22:00:08.892Z,2.33
2022-08-26T22:02:36.773Z,2.88
2022-08-26T22:05:03.952Z,4.20
2022-08-26T22:07:30.531Z,2.47
2022-08-26T22:09:57.158Z,7.85
2022-08-26T22:12:23.754Z,3.55
2022-08-26T22:14:50.425Z,3.55
2022-08-26T22:17:17.143Z,3.85
2022-08-26T22:19:46.273Z,3.72
2022-08-26T22:22:14.380Z,2.92
2022-08-26T22:24:43.288Z,2.28
2022-08-26T22:27:11.973Z,4.68
2022-08-26T22:29:38.691Z,2.97
2022-08-26T22:32:05.501Z,4.43
2022-08-26T22:34:32.258Z,2.17
2022-08-26T22:36:59.643Z,4.03
2022-08-26T22:39:26.562Z,8.77
2022-08-26T22:41:55.236Z,3.70
2022-08-26T22:44:22.783Z,3.53
2022-08-26T22:46:51.675Z,2.95
2022-08-26T22:49:18.357Z,2.92
2022-08-26T22:51:45.845Z,4.70
2022-08-26T22:54:13.477Z,2.58
2022-08-26T22:56:40.481Z,2.53
2022-08-26T22:59:08.471Z,1.35
2022-08-26T23:01:38.898Z,4.28
2022-08-26T23:04:07.006Z,5.15
2022-08-26T23:06:40.340Z,3.20
2022-08-26T23:09:08.622Z,6.45
2022-08-26T23:11:35.418Z,3.72
2022-08-26T23:14:02.334Z,2.92
2022-08-26T23:16:40.719Z,5.05
2022-08-26T23:19:09.552Z,4.22
2022-08-26T23:21:36.469Z,4.88
2022-08-26T23:24:03.782Z,4.85
2022-08-26T23:26:31.706Z,2.80
2022-08-26T23:28:58.438Z,3.08
2022-08-26T23:31:25.225Z,3.78
2022-08-26T23:34:10.463Z,4.22
2022-08-26T23:36:37.034Z,2.38
2022-08-26T23:39:05.598Z,4.95
2022-08-26T23:41:35.793Z,4.57
2022-08-26T23:44:05.335Z,5.15
2022-08-26T23:46:36.299Z,3.13
2022-08-26T23:49:04.321Z,8.02
2022-08-26T23:51:50.046Z,2.90
2022-08-26T23:54:16.958Z,4.97
2022-08-26T23:56:43.964Z,3.42
2022-08-26T23:59:10.678Z,3.72
